createdAt,value
2023-04-15T00:00:09.076Z,37.32
2023-04-15T00:01:09.043Z,37.27
2023-04-15T00:02:09.036Z,37.25
2023-04-15T00:03:09.154Z,37.26
2023-04-15T00:04:08.989Z,37.24
2023-04-15T00:05:08.911Z,37.20
2023-04-15T00:06:08.890Z,37.24
2023-04-15T00:07:08.835Z,37.26
2023-04-15T00:08:08.835Z,37.15
2023-04-15T00:09:08.773Z,37.20
2023-04-15T00:10:08.758Z,37.16
2023-04-15T00:11:08.707Z,37.17
2023-04-15T00:12:08.660Z,37.21
2023-04-15T00:13:08.626Z,37.23
2023-04-15T00:14:08.581Z,37.14
2023-04-15T00:15:08.550Z,37.13
2023-04-15T00:16:08.522Z,37.08
2023-04-15T00:17:08.518Z,37.12
2023-04-15T00:18:08.491Z,37.11
2023-04-15T00:19:08.633Z,37.11
2023-04-15T00:20:08.491Z,37.08
2023-04-15T00:21:08.523Z,37.09
2023-04-15T00:22:08.459Z,37.09
2023-04-15T00:23:08.491Z,37.07
2023-04-15T00:24:08.459Z,37.07
2023-04-15T00:25:08.462Z,37.03
2023-04-15T00:26:08.452Z,37.01
2023-04-15T00:27:08.427Z,37.04
2023-04-15T00:28:08.425Z,37.00
2023-04-15T00:29:08.402Z,37.01
2023-04-15T00:30:08.406Z,37.03
2023-04-15T00:31:08.414Z,37.01
2023-04-15T00:32:08.370Z,37.00
2023-04-15T00:33:08.361Z,37.02
2023-04-15T00:34:08.357Z,37.00
2023-04-15T00:35:08.348Z,36.96
2023-04-15T00:36:08.340Z,37.02
2023-04-15T00:37:08.318Z,36.96
2023-04-15T00:38:08.315Z,36.95
2023-04-15T00:39:08.293Z,36.93
2023-04-15T00:40:08.289Z,36.97
2023-04-15T00:41:08.280Z,36.95
2023-04-15T00:42:08.264Z,36.92
2023-04-15T00:43:08.248Z,36.95
2023-04-15T00:44:08.239Z,36.90
2023-04-15T00:45:08.231Z,36.90
2023-04-15T00:46:08.278Z,36.91
2023-04-15T00:47:08.215Z,36.88
2023-04-15T00:48:08.197Z,36.95
2023-04-15T00:49:08.202Z,36.88
2023-04-15T00:50:08.205Z,36.87
2023-04-15T00:51:08.173Z,36.85
2023-04-15T00:52:08.164Z,36.85
2023-04-15T00:53:08.164Z,36.88
2023-04-15T00:54:08.159Z,36.84
2023-04-15T00:55:08.155Z,36.83
2023-04-15T00:56:08.153Z,36.84
2023-04-15T00:57:08.135Z,36.82
2023-04-15T00:58:08.131Z,36.80
2023-04-15T00:59:08.118Z,36.79
2023-04-15T01:00:08.141Z,36.77
2023-04-15T01:01:08.160Z,36.81
2023-04-15T01:02:08.319Z,36.75
2023-04-15T01:03:08.269Z,36.75
2023-04-15T01:04:08.145Z,36.77
2023-04-15T01:05:08.072Z,36.78
2023-04-15T01:06:08.066Z,36.72
2023-04-15T01:07:08.056Z,36.71
2023-04-15T01:08:08.053Z,36.72
2023-04-15T01:09:08.068Z,36.68
2023-04-15T01:10:08.053Z,36.72
2023-04-15T01:11:08.049Z,36.68
2023-04-15T01:12:08.058Z,36.65
2023-04-15T01:13:08.043Z,36.64
2023-04-15T01:14:08.062Z,36.61
2023-04-15T01:15:08.051Z,36.65
2023-04-15T01:16:08.077Z,36.63
2023-04-15T01:17:08.035Z,36.65
2023-04-15T01:18:08.033Z,36.60
2023-04-15T01:19:08.017Z,36.60
2023-04-15T01:20:08.049Z,36.60
2023-04-15T01:21:08.015Z,36.59
2023-04-15T01:22:08.002Z,36.60
2023-04-15T01:23:08.008Z,36.59
2023-04-15T01:24:08.008Z,36.55
2023-04-15T01:25:08.025Z,36.58
2023-04-15T01:26:07.993Z,36.58
2023-04-15T01:27:07.991Z,36.52
2023-04-15T01:28:07.982Z,36.55
2023-04-15T01:29:07.987Z,36.53
2023-04-15T01:30:07.974Z,36.55
2023-04-15T01:31:08.045Z,36.54
2023-04-15T01:32:07.963Z,36.52
2023-04-15T01:33:07.967Z,36.48
2023-04-15T01:34:07.964Z,36.50
2023-04-15T01:35:07.961Z,36.51
2023-04-15T01:36:07.947Z,36.51
2023-04-15T01:37:07.939Z,36.46
2023-04-15T01:38:07.943Z,36.48
2023-04-15T01:39:07.944Z,36.48
2023-04-15T01:40:07.943Z,36.44
2023-04-15T01:41:08.136Z,36.48
2023-04-15T01:42:07.931Z,36.40
2023-04-15T01:43:08.095Z,36.40
2023-04-15T01:44:07.951Z,36.43
2023-04-15T01:45:07.946Z,36.40
2023-04-15T01:46:07.948Z,36.42
2023-04-15T01:47:07.932Z,36.36
2023-04-15T01:48:07.936Z,36.39
2023-04-15T01:49:07.932Z,36.39
2023-04-15T01:50:07.943Z,36.36
2023-04-15T01:51:07.928Z,36.36
2023-04-15T01:52:07.938Z,36.40
2023-04-15T01:53:07.929Z,36.39
2023-04-15T01:54:07.971Z,36.36
2023-04-15T01:55:07.933Z,36.35
2023-04-15T01:56:07.934Z,36.35
2023-04-15T01:57:07.935Z,36.33
2023-04-15T01:58:07.938Z,36.35
2023-04-15T01:59:07.955Z,36.31
2023-04-15T02:00:07.947Z,36.28
2023-04-15T02:01:08.017Z,36.30
2023-04-15T02:02:08.018Z,36.24
2023-04-15T02:03:08.032Z,36.27
2023-04-15T02:04:08.082Z,36.25
2023-04-15T02:05:07.963Z,36.25
2023-04-15T02:06:08.010Z,36.24
2023-04-15T02:07:07.990Z,36.27
2023-04-15T02:08:07.987Z,36.27
2023-04-15T02:09:07.996Z,36.22
2023-04-15T02:10:08.003Z,36.23
2023-04-15T02:11:08.005Z,36.23
2023-04-15T02:12:08.016Z,36.20
2023-04-15T02:13:08.014Z,36.24
2023-04-15T02:14:08.019Z,36.20
2023-04-15T02:15:08.038Z,36.19
2023-04-15T02:16:08.053Z,36.15
2023-04-15T02:17:08.095Z,36.12
2023-04-15T02:18:08.046Z,36.14
2023-04-15T02:19:08.086Z,36.15
2023-04-15T02:20:08.057Z,36.12
2023-04-15T02:21:08.061Z,36.14
2023-04-15T02:22:08.073Z,36.09
2023-04-15T02:23:08.077Z,36.08
2023-04-15T02:24:08.083Z,36.10
2023-04-15T02:25:08.094Z,36.08
2023-04-15T02:26:08.113Z,36.03
2023-04-15T02:27:08.096Z,36.02
2023-04-15T02:28:08.114Z,36.02
2023-04-15T02:29:08.134Z,36.06
2023-04-15T02:30:08.132Z,36.01
2023-04-15T02:31:08.157Z,36.05
2023-04-15T02:32:08.188Z,35.99
2023-04-15T02:33:08.773Z,36.02
2023-04-15T02:34:08.181Z,36.05
2023-04-15T02:35:08.143Z,36.02
2023-04-15T02:36:08.161Z,36.04
2023-04-15T02:37:08.163Z,36.00
2023-04-15T02:38:08.175Z,36.00
2023-04-15T02:39:08.185Z,35.99
2023-04-15T02:40:08.208Z,36.00
2023-04-15T02:41:08.204Z,35.98
2023-04-15T02:42:08.222Z,36.00
2023-04-15T02:43:08.224Z,35.98
2023-04-15T02:44:09.329Z,35.95
2023-04-15T02:45:08.419Z,35.99
2023-04-15T02:46:08.526Z,35.95
2023-04-15T02:47:08.434Z,35.96
2023-04-15T02:48:08.419Z,35.94
2023-04-15T02:49:08.436Z,35.95
2023-04-15T02:50:08.777Z,35.88
2023-04-15T02:51:08.433Z,35.93
2023-04-15T02:52:08.436Z,35.90
2023-04-15T02:53:08.445Z,35.94
2023-04-15T02:54:08.454Z,35.87
2023-04-15T02:55:08.485Z,35.93
2023-04-15T02:56:08.481Z,35.89
2023-04-15T02:57:08.498Z,35.87
2023-04-15T02:58:08.494Z,35.86
2023-04-15T02:59:08.506Z,35.86
2023-04-15T03:00:08.512Z,35.87
2023-04-15T03:01:08.526Z,35.83
2023-04-15T03:02:08.591Z,35.86
2023-04-15T03:03:08.688Z,35.86
2023-04-15T03:04:08.580Z,35.86
2023-04-15T03:05:08.540Z,35.87
2023-04-15T03:06:08.544Z,35.84
2023-04-15T03:07:08.593Z,35.82
2023-04-15T03:08:09.291Z,35.80
2023-04-15T03:09:08.577Z,35.83
2023-04-15T03:10:08.601Z,35.80
2023-04-15T03:11:08.599Z,35.80
2023-04-15T03:12:08.601Z,35.82
2023-04-15T03:13:08.642Z,35.74
2023-04-15T03:14:08.614Z,35.79
2023-04-15T03:15:08.633Z,35.77
2023-04-15T03:16:08.676Z,35.71
2023-04-15T03:17:08.659Z,35.75
2023-04-15T03:18:08.660Z,35.71
2023-04-15T03:19:08.692Z,35.70
2023-04-15T03:20:08.745Z,35.77
2023-04-15T03:21:08.710Z,35.75
2023-04-15T03:22:08.719Z,35.70
2023-04-15T03:23:08.721Z,35.70
2023-04-15T03:24:08.740Z,35.69
2023-04-15T03:25:08.748Z,35.71
2023-04-15T03:26:08.774Z,35.69
2023-04-15T03:27:08.770Z,35.67
2023-04-15T03:28:08.814Z,35.66
2023-04-15T03:29:08.809Z,35.66
2023-04-15T03:30:08.841Z,35.65
2023-04-15T03:31:08.876Z,35.67
2023-04-15T03:32:08.858Z,35.62
2023-04-15T03:33:08.871Z,35.63
2023-04-15T03:34:08.890Z,35.62
2023-04-15T03:35:08.894Z,35.58
2023-04-15T03:36:08.906Z,35.63
2023-04-15T03:37:08.921Z,35.62
2023-04-15T03:38:08.934Z,35.60
2023-04-15T03:39:08.952Z,35.59
2023-04-15T03:40:08.968Z,35.57
2023-04-15T03:41:08.970Z,35.55
2023-04-15T03:42:09.002Z,35.57
2023-04-15T03:43:09.005Z,35.54
2023-04-15T03:44:09.030Z,35.57
2023-04-15T03:45:09.202Z,35.49
2023-04-15T03:46:09.071Z,35.55
2023-04-15T03:47:09.075Z,35.55
2023-04-15T03:48:17.341Z,35.49
2023-04-15T03:49:10.052Z,35.49
2023-04-15T03:50:09.030Z,35.47
2023-04-15T03:51:08.995Z,35.52
2023-04-15T03:52:08.962Z,35.47
2023-04-15T03:53:08.946Z,35.50
2023-04-15T03:54:08.915Z,35.47
2023-04-15T03:55:08.896Z,35.46
2023-04-15T03:56:08.876Z,35.45
2023-04-15T03:57:08.862Z,35.44
2023-04-15T03:58:08.847Z,35.46
2023-04-15T03:59:08.816Z,35.45
2023-04-15T04:00:08.791Z,35.41
2023-04-15T04:01:08.761Z,35.42
2023-04-15T04:02:08.821Z,35.42
2023-04-15T04:03:09.049Z,35.41
2023-04-15T04:04:08.885Z,35.41
2023-04-15T04:05:08.800Z,35.35
2023-04-15T04:06:08.813Z,35.38
2023-04-15T04:07:08.881Z,35.39
2023-04-15T04:08:08.835Z,35.38
2023-04-15T04:09:08.851Z,35.35
2023-04-15T04:10:08.875Z,35.34
2023-04-15T04:11:08.882Z,35.39
2023-04-15T04:12:08.913Z,35.40
2023-04-15T04:13:08.920Z,35.35
2023-04-15T04:14:08.942Z,35.33
2023-04-15T04:15:08.950Z,35.28
2023-04-15T04:16:09.013Z,35.29
2023-04-15T04:17:09.024Z,35.30
2023-04-15T04:18:08.999Z,35.34
2023-04-15T04:19:09.040Z,35.29
2023-04-15T04:20:09.054Z,35.31
2023-04-15T04:21:10.082Z,35.29
2023-04-15T04:22:09.013Z,35.24
2023-04-15T04:23:08.975Z,35.26
2023-04-15T04:24:08.959Z,35.25
2023-04-15T04:25:08.931Z,35.25
2023-04-15T04:26:08.903Z,35.25
2023-04-15T04:27:08.876Z,35.25
2023-04-15T04:28:08.866Z,35.22
2023-04-15T04:29:08.836Z,35.26
2023-04-15T04:30:08.817Z,35.20
2023-04-15T04:31:08.813Z,35.21
2023-04-15T04:32:08.850Z,35.17
2023-04-15T04:33:08.792Z,35.21
2023-04-15T04:34:08.820Z,35.22
2023-04-15T04:35:08.849Z,35.23
2023-04-15T04:36:08.860Z,35.22
2023-04-15T04:37:08.882Z,35.19
2023-04-15T04:38:08.908Z,35.18
2023-04-15T04:39:08.929Z,35.17
2023-04-15T04:40:08.949Z,35.17
2023-04-15T04:41:08.985Z,35.16
2023-04-15T04:42:08.990Z,35.17
2023-04-15T04:43:09.016Z,35.12
2023-04-15T04:44:09.042Z,35.13
2023-04-15T04:45:09.068Z,35.13
2023-04-15T04:46:09.137Z,35.09
2023-04-15T04:47:09.097Z,35.09
2023-04-15T04:48:09.111Z,35.08
2023-04-15T04:49:09.147Z,35.04
2023-04-15T04:50:09.180Z,35.06
2023-04-15T04:51:09.183Z,35.09
2023-04-15T04:52:09.216Z,35.03
2023-04-15T04:53:09.235Z,35.08
2023-04-15T04:54:09.256Z,35.09
2023-04-15T04:55:09.285Z,35.06
2023-04-15T04:56:09.291Z,35.05
2023-04-15T04:57:09.314Z,35.03
2023-04-15T04:58:09.333Z,35.03
2023-04-15T04:59:09.354Z,35.02
2023-04-15T05:00:09.384Z,35.01
2023-04-15T05:01:09.408Z,35.06
2023-04-15T05:02:09.469Z,35.05
2023-04-15T05:03:09.599Z,35.04
2023-04-15T05:04:09.646Z,34.98
2023-04-15T05:05:09.490Z,34.98
2023-04-15T05:06:09.522Z,35.03
2023-04-15T05:07:09.534Z,34.98
2023-04-15T05:08:09.552Z,35.03
2023-04-15T05:09:09.581Z,34.98
2023-04-15T05:10:09.833Z,34.99
2023-04-15T05:11:09.617Z,35.02
2023-04-15T05:12:09.651Z,34.98
2023-04-15T05:13:09.668Z,34.95
2023-04-15T05:14:09.691Z,34.96
2023-04-15T05:15:09.705Z,34.89
2023-04-15T05:16:09.769Z,34.95
2023-04-15T05:17:09.766Z,34.90
2023-04-15T05:18:09.783Z,34.88
2023-04-15T05:19:09.791Z,34.87
2023-04-15T05:20:09.826Z,34.92
2023-04-15T05:21:09.865Z,34.89
2023-04-15T05:22:09.870Z,34.90
2023-04-15T05:23:09.910Z,34.85
2023-04-15T05:24:09.927Z,34.85
2023-04-15T05:25:09.943Z,34.87
2023-04-15T05:26:09.954Z,34.84
2023-04-15T05:27:09.986Z,34.88
2023-04-15T05:28:09.998Z,34.87
2023-04-15T05:29:10.054Z,34.81
2023-04-15T05:30:11.620Z,34.81
2023-04-15T05:31:10.083Z,34.80
2023-04-15T05:32:09.992Z,34.79
2023-04-15T05:33:09.966Z,34.79
2023-04-15T05:34:09.935Z,34.80
2023-04-15T05:35:09.936Z,34.76
2023-04-15T05:36:09.896Z,34.80
2023-04-15T05:37:09.882Z,34.76
2023-04-15T05:38:09.864Z,34.72
2023-04-15T05:39:09.832Z,34.72
2023-04-15T05:40:09.811Z,34.71
2023-04-15T05:41:09.792Z,34.74
2023-04-15T05:42:09.764Z,34.74
2023-04-15T05:43:09.733Z,34.74
2023-04-15T05:44:09.699Z,34.74
2023-04-15T05:45:09.665Z,34.68
2023-04-15T05:46:09.656Z,34.68
2023-04-15T05:47:09.612Z,34.71
2023-04-15T05:48:09.584Z,34.68
2023-04-15T05:49:09.548Z,34.71
2023-04-15T05:50:09.532Z,34.67
2023-04-15T05:51:09.506Z,34.67
2023-04-15T05:52:09.481Z,34.68
2023-04-15T05:53:09.456Z,34.67
2023-04-15T05:54:09.422Z,34.66
2023-04-15T05:55:09.400Z,34.61
2023-04-15T05:56:09.377Z,34.61
2023-04-15T05:57:09.345Z,34.63
2023-04-15T05:58:09.412Z,34.64
2023-04-15T05:59:09.299Z,34.61
2023-04-15T06:00:09.264Z,34.62
2023-04-15T06:01:09.237Z,34.61
2023-04-15T06:02:09.269Z,34.57
2023-04-15T06:03:09.227Z,34.54
2023-04-15T06:04:09.233Z,34.55
2023-04-15T06:05:09.286Z,34.56
2023-04-15T06:06:09.094Z,34.57
2023-04-15T06:07:09.064Z,34.58
2023-04-15T06:08:09.038Z,34.53
2023-04-15T06:09:09.008Z,34.54
2023-04-15T06:10:08.981Z,34.54
2023-04-15T06:11:08.969Z,34.50
2023-04-15T06:12:08.947Z,34.50
2023-04-15T06:13:08.926Z,34.48
2023-04-15T06:14:08.884Z,34.52
2023-04-15T06:15:08.881Z,34.49
2023-04-15T06:16:08.853Z,34.50
2023-04-15T06:17:08.881Z,34.47
2023-04-15T06:18:08.857Z,34.45
2023-04-15T06:19:08.866Z,34.47
2023-04-15T06:20:08.898Z,34.40
2023-04-15T06:21:08.933Z,34.40
2023-04-15T06:22:08.919Z,34.40
2023-04-15T06:23:08.932Z,34.40
2023-04-15T06:24:08.947Z,34.40
2023-04-15T06:25:08.959Z,34.36
2023-04-15T06:26:08.971Z,34.38
2023-04-15T06:27:09.001Z,34.36
2023-04-15T06:28:08.989Z,34.39
2023-04-15T06:29:09.016Z,34.32
2023-04-15T06:30:09.031Z,34.34
2023-04-15T06:31:09.104Z,34.32
2023-04-15T06:32:09.070Z,34.30
2023-04-15T06:33:09.091Z,34.30
2023-04-15T06:34:09.131Z,34.30
2023-04-15T06:35:09.135Z,34.27
2023-04-15T06:36:09.145Z,34.23
2023-04-15T06:37:09.182Z,34.21
2023-04-15T06:38:09.182Z,34.23
2023-04-15T06:39:09.209Z,34.21
2023-04-15T06:40:09.214Z,34.22
2023-04-15T06:41:09.228Z,34.21
2023-04-15T06:42:09.239Z,34.20
2023-04-15T06:43:09.262Z,34.17
2023-04-15T06:44:09.275Z,34.12
2023-04-15T06:45:09.294Z,34.15
2023-04-15T06:46:09.404Z,34.13
2023-04-15T06:47:09.327Z,34.14
2023-04-15T06:48:09.342Z,34.12
2023-04-15T06:49:09.369Z,34.12
2023-04-15T06:50:09.424Z,34.08
2023-04-15T06:51:09.390Z,34.11
2023-04-15T06:52:09.422Z,34.12
2023-04-15T06:53:09.425Z,34.02
2023-04-15T06:54:09.446Z,34.02
2023-04-15T06:55:09.455Z,34.04
2023-04-15T06:56:09.468Z,34.00
2023-04-15T06:57:09.498Z,34.04
2023-04-15T06:58:09.501Z,34.00
2023-04-15T06:59:09.526Z,34.00
2023-04-15T07:00:09.535Z,33.98
2023-04-15T07:01:09.564Z,33.95
2023-04-15T07:02:09.583Z,33.98
2023-04-15T07:03:09.612Z,33.89
2023-04-15T07:04:09.622Z,33.92
2023-04-15T07:05:09.610Z,33.90
2023-04-15T07:06:09.600Z,33.88
2023-04-15T07:07:09.616Z,33.88
2023-04-15T07:08:09.644Z,33.92
2023-04-15T07:09:09.644Z,33.83
2023-04-15T07:10:09.656Z,33.80
2023-04-15T07:11:09.653Z,33.80
2023-04-15T07:12:09.664Z,33.79
2023-04-15T07:13:09.674Z,33.80
2023-04-15T07:14:09.679Z,33.78
2023-04-15T07:15:09.690Z,33.75
2023-04-15T07:16:09.730Z,33.74
2023-04-15T07:17:09.783Z,33.73
2023-04-15T07:18:09.723Z,33.71
2023-04-15T07:19:09.800Z,33.71
2023-04-15T07:20:09.873Z,33.70
2023-04-15T07:21:09.741Z,33.70
2023-04-15T07:22:09.742Z,33.67
2023-04-15T07:23:09.777Z,33.67
2023-04-15T07:24:09.763Z,33.65
2023-04-15T07:25:09.770Z,33.69
2023-04-15T07:26:09.777Z,33.62
2023-04-15T07:27:09.786Z,33.62
2023-04-15T07:28:09.784Z,33.60
2023-04-15T07:29:09.786Z,33.60
2023-04-15T07:30:09.818Z,33.57
2023-04-15T07:31:09.864Z,33.60
2023-04-15T07:32:09.800Z,33.59
2023-04-15T07:33:09.807Z,33.57
2023-04-15T07:34:09.823Z,33.54
2023-04-15T07:35:09.846Z,33.56
2023-04-15T07:36:09.818Z,33.60
2023-04-15T07:37:09.836Z,33.57
2023-04-15T07:38:09.845Z,33.51
2023-04-15T07:39:09.825Z,33.52
2023-04-15T07:40:09.826Z,33.51
2023-04-15T07:41:09.831Z,33.55
2023-04-15T07:42:09.861Z,33.51
2023-04-15T07:43:09.854Z,33.52
2023-04-15T07:44:09.853Z,33.50
2023-04-15T07:45:09.866Z,33.51
2023-04-15T07:46:09.901Z,33.45
2023-04-15T07:47:09.879Z,33.45
2023-04-15T07:48:09.878Z,33.50
2023-04-15T07:49:09.879Z,33.47
2023-04-15T07:50:10.872Z,33.46
2023-04-15T07:51:09.880Z,33.43
2023-04-15T07:52:09.890Z,33.43
2023-04-15T07:53:09.917Z,33.39
2023-04-15T07:54:09.903Z,33.40
2023-04-15T07:55:09.911Z,33.43
2023-04-15T07:56:09.929Z,33.42
2023-04-15T07:57:09.941Z,33.39
2023-04-15T07:58:09.920Z,33.43
2023-04-15T07:59:09.946Z,33.40
2023-04-15T08:00:09.941Z,33.39
2023-04-15T08:01:09.931Z,33.40
2023-04-15T08:02:10.029Z,33.35
2023-04-15T08:03:10.133Z,33.38
2023-04-15T08:04:10.122Z,33.35
2023-04-15T08:05:09.993Z,33.35
2023-04-15T08:06:09.967Z,33.33
2023-04-15T08:07:10.036Z,33.35
2023-04-15T08:08:09.981Z,33.29
2023-04-15T08:09:09.979Z,33.29
2023-04-15T08:10:09.986Z,33.24
2023-04-15T08:11:09.975Z,33.29
2023-04-15T08:12:09.972Z,33.25
2023-04-15T08:13:09.969Z,33.27
2023-04-15T08:14:09.976Z,33.31
2023-04-15T08:15:09.976Z,33.27
2023-04-15T08:16:10.000Z,33.25
2023-04-15T08:17:09.953Z,33.28
2023-04-15T08:18:09.963Z,33.19
2023-04-15T08:19:09.951Z,33.22
2023-04-15T08:20:09.961Z,33.20
2023-04-15T08:21:09.968Z,33.22
2023-04-15T08:22:10.471Z,33.17
2023-04-15T08:23:10.930Z,33.18
2023-04-15T08:24:09.907Z,33.18
2023-04-15T08:25:09.880Z,33.10
2023-04-15T08:26:09.852Z,33.16
2023-04-15T08:27:09.826Z,33.11
2023-04-15T08:28:09.787Z,33.17
2023-04-15T08:29:09.760Z,33.13
2023-04-15T08:30:09.717Z,33.11
2023-04-15T08:31:09.800Z,33.08
2023-04-15T08:32:09.654Z,33.09
2023-04-15T08:33:09.612Z,33.10
2023-04-15T08:34:09.573Z,33.07
2023-04-15T08:35:09.545Z,33.10
2023-04-15T08:36:09.506Z,33.10
2023-04-15T08:37:10.915Z,33.07
2023-04-15T08:38:09.440Z,33.07
2023-04-15T08:39:09.410Z,33.03
2023-04-15T08:40:09.390Z,33.06
2023-04-15T08:41:09.346Z,32.98
2023-04-15T08:42:09.321Z,33.06
2023-04-15T08:43:09.296Z,33.03
2023-04-15T08:44:09.255Z,33.00
2023-04-15T08:45:09.226Z,32.98
2023-04-15T08:46:09.198Z,33.00
2023-04-15T08:47:09.288Z,32.94
2023-04-15T08:48:09.151Z,32.97
2023-04-15T08:49:09.126Z,32.94
2023-04-15T08:50:09.091Z,32.89
2023-04-15T08:51:09.052Z,32.95
2023-04-15T08:52:09.034Z,32.91
2023-04-15T08:53:08.992Z,32.94
2023-04-15T08:54:08.961Z,32.84
2023-04-15T08:55:08.932Z,32.86
2023-04-15T08:56:08.900Z,32.83
2023-04-15T08:57:08.864Z,32.84
2023-04-15T08:58:08.833Z,32.82
2023-04-15T08:59:08.902Z,32.84
2023-04-15T09:00:08.782Z,32.84
2023-04-15T09:01:08.755Z,32.83
2023-04-15T09:02:08.757Z,32.79
2023-04-15T09:03:08.836Z,32.86
2023-04-15T09:04:08.719Z,32.82
2023-04-15T09:05:08.630Z,32.82
2023-04-15T09:06:08.581Z,32.79
2023-04-15T09:07:08.547Z,32.80
2023-04-15T09:08:08.575Z,32.79
2023-04-15T09:09:08.471Z,32.79
2023-04-15T09:10:08.450Z,32.76
2023-04-15T09:11:08.409Z,32.75
2023-04-15T09:12:08.364Z,32.77
2023-04-15T09:13:08.332Z,32.78
2023-04-15T09:14:08.377Z,32.73
2023-04-15T09:15:08.278Z,32.68
2023-04-15T09:16:08.520Z,32.76
2023-04-15T09:17:08.214Z,32.76
2023-04-15T09:18:08.193Z,32.73
2023-04-15T09:19:08.146Z,32.72
2023-04-15T09:20:08.119Z,32.74
2023-04-15T09:21:08.074Z,32.68
2023-04-15T09:22:08.052Z,32.68
2023-04-15T09:23:08.021Z,32.73
2023-04-15T09:24:08.004Z,32.73
2023-04-15T09:25:07.956Z,32.69
2023-04-15T09:26:07.928Z,32.72
2023-04-15T09:27:07.880Z,32.62
2023-04-15T09:28:07.872Z,32.67
2023-04-15T09:29:07.904Z,32.68
2023-04-15T09:30:07.802Z,32.69
2023-04-15T09:31:07.841Z,32.67
2023-04-15T09:32:07.709Z,32.67
2023-04-15T09:33:07.693Z,32.65
2023-04-15T09:34:07.650Z,32.61
2023-04-15T09:35:07.610Z,32.61
2023-04-15T09:36:08.413Z,32.62
2023-04-15T09:37:07.961Z,32.65
2023-04-15T09:38:07.602Z,32.57
2023-04-15T09:39:07.500Z,32.60
2023-04-15T09:40:07.472Z,32.57
2023-04-15T09:41:07.437Z,32.61
2023-04-15T09:42:07.400Z,32.53
2023-04-15T09:43:07.362Z,32.53
2023-04-15T09:44:07.319Z,32.56
2023-04-15T09:45:07.280Z,32.51
2023-04-15T09:46:07.315Z,32.51
2023-04-15T09:47:07.216Z,32.51
2023-04-15T09:48:07.268Z,32.46
2023-04-15T09:49:07.153Z,32.48
2023-04-15T09:50:07.424Z,32.51
2023-04-15T09:51:07.095Z,32.45
2023-04-15T09:52:07.104Z,32.51
2023-04-15T09:53:07.006Z,32.49
2023-04-15T09:54:06.956Z,32.48
2023-04-15T09:55:06.932Z,32.45
2023-04-15T09:56:06.886Z,32.45
2023-04-15T09:57:06.864Z,32.46
2023-04-15T09:58:06.818Z,32.43
2023-04-15T09:59:06.794Z,32.45
2023-04-15T10:00:06.745Z,32.45
2023-04-15T10:01:06.733Z,32.42
2023-04-15T10:02:06.751Z,32.45
2023-04-15T10:03:06.713Z,32.42
2023-04-15T10:04:07.100Z,32.40
2023-04-15T10:05:06.563Z,32.42
2023-04-15T10:06:06.529Z,32.41
2023-04-15T10:07:06.472Z,32.44
2023-04-15T10:08:06.427Z,32.45
2023-04-15T10:09:06.919Z,32.38
2023-04-15T10:10:06.373Z,32.41
2023-04-15T10:11:06.350Z,32.38
2023-04-15T10:12:06.301Z,32.40
2023-04-15T10:13:06.272Z,32.37
2023-04-15T10:14:06.228Z,32.40
2023-04-15T10:15:06.191Z,32.40
2023-04-15T10:16:06.222Z,32.41
2023-04-15T10:17:06.120Z,32.37
2023-04-15T10:18:06.115Z,32.41
2023-04-15T10:19:06.053Z,32.40
2023-04-15T10:20:06.017Z,32.38
2023-04-15T10:21:05.985Z,32.44
2023-04-15T10:22:05.958Z,32.40
2023-04-15T10:23:06.878Z,32.38
2023-04-15T10:24:05.871Z,32.41
2023-04-15T10:25:05.853Z,32.38
2023-04-15T10:26:05.812Z,32.35
2023-04-15T10:27:05.803Z,32.35
2023-04-15T10:28:05.745Z,32.37
2023-04-15T10:29:05.712Z,32.36
2023-04-15T10:30:05.680Z,32.33
2023-04-15T10:31:05.665Z,32.36
2023-04-15T10:32:05.593Z,32.33
2023-04-15T10:33:05.565Z,32.34
2023-04-15T10:34:05.566Z,32.35
2023-04-15T10:35:05.501Z,32.34
2023-04-15T10:36:05.479Z,32.35
2023-04-15T10:37:05.439Z,32.30
2023-04-15T10:38:05.403Z,32.35
2023-04-15T10:39:05.367Z,32.29
2023-04-15T10:40:05.344Z,32.30
2023-04-15T10:41:05.298Z,32.33
2023-04-15T10:42:05.256Z,32.33
2023-04-15T10:43:05.233Z,32.33
2023-04-15T10:44:05.425Z,32.33
2023-04-15T10:45:05.152Z,32.33
2023-04-15T10:46:05.161Z,32.29
2023-04-15T10:47:05.089Z,32.33
2023-04-15T10:48:05.082Z,32.35
2023-04-15T10:49:05.024Z,32.36
2023-04-15T10:50:05.008Z,32.30
2023-04-15T10:51:04.965Z,32.33
2023-04-15T10:52:04.911Z,32.29
2023-04-15T10:53:04.886Z,32.32
2023-04-15T10:54:05.023Z,32.26
2023-04-15T10:55:04.820Z,32.32
2023-04-15T10:56:04.791Z,32.30
2023-04-15T10:57:04.754Z,32.28
2023-04-15T10:58:04.727Z,32.26
2023-04-15T10:59:04.704Z,32.31
2023-04-15T11:00:04.667Z,32.31
2023-04-15T11:01:04.603Z,32.32
2023-04-15T11:02:04.610Z,32.27
2023-04-15T11:03:04.687Z,32.30
2023-04-15T11:04:04.699Z,32.27
2023-04-15T11:05:04.494Z,32.28
2023-04-15T11:06:04.404Z,32.30
2023-04-15T11:07:04.356Z,32.23
2023-04-15T11:08:04.314Z,32.27
2023-04-15T11:09:04.277Z,32.25
2023-04-15T11:10:04.240Z,32.31
2023-04-15T11:11:04.235Z,32.27
2023-04-15T11:12:04.155Z,32.27
2023-04-15T11:13:04.134Z,32.30
2023-04-15T11:14:04.230Z,32.27
2023-04-15T11:15:04.049Z,32.27
2023-04-15T11:16:04.066Z,32.24
2023-04-15T11:17:03.986Z,32.28
2023-04-15T11:18:03.982Z,32.27
2023-04-15T11:19:03.932Z,32.24
2023-04-15T11:20:03.882Z,32.24
2023-04-15T11:21:03.848Z,32.24
2023-04-15T11:22:03.806Z,32.26
2023-04-15T11:23:14.008Z,32.26
2023-04-15T11:24:05.010Z,32.23
2023-04-15T11:25:03.695Z,32.21
2023-04-15T11:26:03.682Z,32.22
2023-04-15T11:27:03.628Z,32.23
2023-04-15T11:28:03.599Z,32.26
2023-04-15T11:29:03.871Z,32.19
2023-04-15T11:30:03.502Z,32.24
2023-04-15T11:31:03.471Z,32.22
2023-04-15T11:32:03.485Z,32.22
2023-04-15T11:33:03.448Z,32.23
2023-04-15T11:34:03.373Z,32.23
2023-04-15T11:35:03.325Z,32.26
2023-04-15T11:36:03.293Z,32.20
2023-04-15T11:37:03.268Z,32.20
2023-04-15T11:38:03.205Z,32.24
2023-04-15T11:39:03.166Z,32.24
2023-04-15T11:40:03.173Z,32.23
2023-04-15T11:41:03.104Z,32.29
2023-04-15T11:42:03.063Z,32.22
2023-04-15T11:43:03.023Z,32.27
2023-04-15T11:44:03.163Z,32.26
2023-04-15T11:45:02.955Z,32.29
2023-04-15T11:46:02.956Z,32.27
2023-04-15T11:47:02.876Z,32.26
2023-04-15T11:48:02.848Z,32.27
2023-04-15T11:49:02.788Z,32.30
2023-04-15T11:50:02.750Z,32.30
2023-04-15T11:51:02.767Z,32.29
2023-04-15T11:52:02.677Z,32.27
2023-04-15T11:53:02.646Z,32.30
2023-04-15T11:54:02.929Z,32.34
2023-04-15T11:55:02.565Z,32.31
2023-04-15T11:56:02.541Z,32.34
2023-04-15T11:57:02.492Z,32.38
2023-04-15T11:58:02.452Z,32.29
2023-04-15T11:59:02.449Z,32.37
2023-04-15T12:00:02.368Z,32.34
2023-04-15T12:01:02.367Z,32.34
2023-04-15T12:02:02.350Z,32.34
2023-04-15T12:03:02.501Z,32.37
2023-04-15T12:04:02.586Z,32.34
2023-04-15T12:05:02.239Z,32.33
2023-04-15T12:06:02.187Z,32.34
2023-04-15T12:07:02.128Z,32.34
2023-04-15T12:08:02.880Z,32.37
2023-04-15T12:09:02.063Z,32.38
2023-04-15T12:10:02.062Z,32.40
2023-04-15T12:11:01.987Z,32.38
2023-04-15T12:12:01.946Z,32.38
2023-04-15T12:13:01.913Z,32.34
2023-04-15T12:14:02.151Z,32.41
2023-04-15T12:15:01.870Z,32.40
2023-04-15T12:16:01.849Z,32.42
2023-04-15T12:17:01.819Z,32.42
2023-04-15T12:18:01.786Z,32.39
2023-04-15T12:19:01.730Z,32.40
2023-04-15T12:20:01.714Z,32.42
2023-04-15T12:21:01.657Z,32.42
2023-04-15T12:22:01.607Z,32.44
2023-04-15T12:23:01.568Z,32.41
2023-04-15T12:24:01.531Z,32.45
2023-04-15T12:25:01.493Z,32.42
2023-04-15T12:26:01.467Z,32.46
2023-04-15T12:27:01.454Z,32.45
2023-04-15T12:28:01.404Z,32.49
2023-04-15T12:29:01.338Z,32.48
2023-04-15T12:30:01.311Z,32.52
2023-04-15T12:31:01.289Z,32.44
2023-04-15T12:32:01.209Z,32.45
2023-04-15T12:33:01.221Z,32.44
2023-04-15T12:34:01.141Z,32.48
2023-04-15T12:35:01.069Z,32.42
2023-04-15T12:36:01.039Z,32.51
2023-04-15T12:37:00.993Z,32.53
2023-04-15T12:38:00.959Z,32.43
2023-04-15T12:39:00.915Z,32.46
2023-04-15T12:40:00.889Z,32.45
2023-04-15T12:41:00.899Z,32.44
2023-04-15T12:42:00.810Z,32.46
2023-04-15T12:43:00.765Z,32.46
2023-04-15T12:44:00.732Z,32.45
2023-04-15T12:45:01.099Z,32.49
2023-04-15T12:46:00.670Z,32.51
2023-04-15T12:47:00.700Z,32.48
2023-04-15T12:48:00.641Z,32.48
2023-04-15T12:49:00.575Z,32.48
2023-04-15T12:50:00.522Z,32.49
2023-04-15T12:51:00.499Z,32.55
2023-04-15T12:52:00.460Z,32.52